createdAt,value
2018-12-04T10:53:06.325Z,11.50
2018-12-04T10:55:36.310Z,11.54
2018-12-04T10:58:06.538Z,10.82
2018-12-04T11:00:41.703Z,10.43
2018-12-04T11:03:14.452Z,10.47
2018-12-04T11:05:44.564Z,10.14
2018-12-04T11:08:14.877Z,10.64
2018-12-04T11:10:47.271Z,10.52
2018-12-04T11:13:17.940Z,10.55
2018-12-04T11:15:49.414Z,10.82
2018-12-04T11:18:19.576Z,10.78
2018-12-04T11:20:50.260Z,10.65
2018-12-04T11:23:21.015Z,10.88
2018-12-04T11:25:52.350Z,10.77
2018-12-04T11:28:22.682Z,11.65
2018-12-04T11:30:52.633Z,12.50
2018-12-04T11:57:19.925Z,12.28
2018-12-04T11:59:48.872Z,12.64
2018-12-04T12:02:17.824Z,13.11
2018-12-04T12:04:46.738Z,12.82
2018-12-04T12:07:20.551Z,12.89
2018-12-04T12:09:46.656Z,13.15
2018-12-04T12:12:15.519Z,12.90
2018-12-04T12:14:44.722Z,13.27
2018-12-04T12:17:13.626Z,13.26
2018-12-04T12:19:42.595Z,13.60
2018-12-04T12:22:11.499Z,13.24
2018-12-04T12:24:40.492Z,12.47
2018-12-04T12:27:09.388Z,12.99
2018-12-04T12:29:38.326Z,12.91
2018-12-04T12:32:07.277Z,12.36
2018-12-04T12:34:36.275Z,12.11
2018-12-04T12:37:05.154Z,11.96
2018-12-04T12:39:34.072Z,11.77
2018-12-04T12:42:02.955Z,11.29
2018-12-04T12:44:32.588Z,11.31
2018-12-04T12:47:01.548Z,11.27
2018-12-04T12:49:30.479Z,11.91
2018-12-04T12:52:00.482Z,11.39
2018-12-04T12:54:29.693Z,11.69
2018-12-04T12:56:58.599Z,12.50
2018-12-04T12:59:27.580Z,13.01
2018-12-04T13:01:56.512Z,12.43
2018-12-04T13:04:25.386Z,11.87
2018-12-04T13:06:54.306Z,11.97
2018-12-04T13:09:23.227Z,12.92
2018-12-04T13:11:52.124Z,13.99
2018-12-04T13:14:21.036Z,15.01
2018-12-04T13:16:49.971Z,13.92
2018-12-04T13:19:18.835Z,13.00
2018-12-04T13:21:47.756Z,12.54
2018-12-04T13:24:16.640Z,12.39
2018-12-04T13:26:45.545Z,11.58
2018-12-04T13:29:14.404Z,11.86
2018-12-04T13:31:43.348Z,11.96
2018-12-04T13:34:12.254Z,12.37
2018-12-04T13:36:42.340Z,12.33
2018-12-04T13:39:11.734Z,13.24
2018-12-04T13:41:40.723Z,12.73
2018-12-04T13:44:09.621Z,13.72
2018-12-04T13:46:39.130Z,13.85
2018-12-04T13:49:08.007Z,14.60
2018-12-04T13:51:36.953Z,14.71
2018-12-04T13:54:05.928Z,14.73
2018-12-04T13:56:34.941Z,14.48
2018-12-04T13:59:03.835Z,14.40
2018-12-04T14:01:33.356Z,15.03
2018-12-04T14:04:02.221Z,14.50
2018-12-04T14:06:32.746Z,15.22
2018-12-04T14:09:01.945Z,15.94
2018-12-04T14:11:31.160Z,15.40
2018-12-04T14:14:00.732Z,14.91
2018-12-04T14:16:30.018Z,14.98
2018-12-04T14:18:59.062Z,15.01
2018-12-04T14:21:28.683Z,15.14
2018-12-04T14:23:58.068Z,14.80
2018-12-04T14:26:27.548Z,14.18
2018-12-04T14:28:56.516Z,14.29
2018-12-04T14:31:25.485Z,14.29
2018-12-04T14:33:54.397Z,13.77
2018-12-04T14:36:23.281Z,13.64
2018-12-04T14:38:52.218Z,13.59
2018-12-04T14:41:21.182Z,13.48
2018-12-04T14:43:50.253Z,12.87
2018-12-04T14:46:19.117Z,12.57
2018-12-04T14:48:48.205Z,12.58
2018-12-04T14:51:17.188Z,12.25
2018-12-04T14:53:46.250Z,12.44
2018-12-04T14:56:15.123Z,11.82
2018-12-04T14:58:44.092Z,11.85
2018-12-04T15:01:12.990Z,12.45
2018-12-04T15:03:41.889Z,11.31
2018-12-04T15:06:10.834Z,10.93
2018-12-04T15:08:39.759Z,11.29
2018-12-04T15:11:08.636Z,10.42
2018-12-04T15:13:37.738Z,10.36
2018-12-04T15:16:06.676Z,10.34
2018-12-04T15:18:35.784Z,10.25
2018-12-04T15:21:05.223Z,10.28
2018-12-04T15:23:34.639Z,10.01
2018-12-04T15:26:04.496Z,9.74
2018-12-04T15:28:34.308Z,10.38
2018-12-04T15:31:03.791Z,10.35
2018-12-04T15:33:34.512Z,10.88
2018-12-04T15:36:03.786Z,10.93
2018-12-04T15:38:33.804Z,10.82
2018-12-04T15:41:02.752Z,10.78
2018-12-04T15:43:32.412Z,11.07
2018-12-04T15:46:01.683Z,10.60
2018-12-04T15:48:31.335Z,10.83
2018-12-04T15:51:00.958Z,10.86
2018-12-04T15:53:30.272Z,10.52
2018-12-04T15:55:59.625Z,10.28
2018-12-04T15:58:29.336Z,10.23
2018-12-04T16:00:59.870Z,10.26
2018-12-04T16:03:28.977Z,9.94
2018-12-04T16:05:58.194Z,10.04
2018-12-04T16:08:27.555Z,10.01
2018-12-04T16:10:57.352Z,9.96
2018-12-04T16:13:27.017Z,9.75
2018-12-04T16:15:56.793Z,9.35
2018-12-04T16:18:26.797Z,9.49
2018-12-04T16:20:56.530Z,9.52
2018-12-04T16:23:26.265Z,9.40
2018-12-04T16:25:55.169Z,9.10
2018-12-04T16:28:24.540Z,8.21
2018-12-04T16:30:53.459Z,8.75
2018-12-04T16:33:22.340Z,8.98
2018-12-04T16:35:51.335Z,8.99
2018-12-04T16:38:20.188Z,9.31
2018-12-04T16:40:49.249Z,9.20
2018-12-04T16:43:18.627Z,9.28
2018-12-04T16:45:48.720Z,9.22
2018-12-04T16:48:18.074Z,9.06
2018-12-04T16:50:47.011Z,8.89
2018-12-04T16:53:15.925Z,8.65
2018-12-04T16:55:44.856Z,8.43
2018-12-04T16:58:13.725Z,8.60
2018-12-04T17:00:42.646Z,8.81
2018-12-04T17:03:11.528Z,8.80
2018-12-04T17:05:40.475Z,8.78
2018-12-04T17:08:09.470Z,8.77
2018-12-04T17:10:38.484Z,8.59
2018-12-04T17:13:07.345Z,8.48
2018-12-04T17:15:36.488Z,8.49
2018-12-04T17:18:05.407Z,8.10
2018-12-04T17:20:34.750Z,8.40
2018-12-04T17:23:03.812Z,8.53
2018-12-04T17:25:32.706Z,8.40
2018-12-04T17:28:01.618Z,8.60
2018-12-04T17:30:30.481Z,8.21
2018-12-04T17:33:00.367Z,8.11
2018-12-04T17:35:29.312Z,7.61
2018-12-04T17:37:59.134Z,6.76
2018-12-04T17:40:28.014Z,6.64
2018-12-04T17:42:58.190Z,6.77
2018-12-04T17:45:27.870Z,7.46
2018-12-04T17:47:57.529Z,7.70
2018-12-04T17:50:27.325Z,7.35
2018-12-04T17:52:56.804Z,7.70
2018-12-04T17:55:26.004Z,7.72
2018-12-04T17:57:55.698Z,7.82
2018-12-04T18:00:25.341Z,7.68
2018-12-04T18:02:54.291Z,7.53
2018-12-04T18:05:23.193Z,7.81
2018-12-04T18:07:52.115Z,7.54
2018-12-04T18:10:20.976Z,7.45
2018-12-04T18:12:49.890Z,7.30
2018-12-04T18:15:18.797Z,7.57
2018-12-04T18:17:47.699Z,7.60
2018-12-04T18:20:16.551Z,7.26
2018-12-04T18:22:46.035Z,7.25
2018-12-04T18:25:15.111Z,6.89
2018-12-04T18:27:44.150Z,7.03
2018-12-04T18:30:13.040Z,7.17
2018-12-04T18:32:41.960Z,7.35
2018-12-04T18:35:11.070Z,7.44
2018-12-04T18:37:39.976Z,7.12
2018-12-04T18:40:08.912Z,6.22
2018-12-04T18:42:37.852Z,6.27
2018-12-04T18:45:08.385Z,5.79
2018-12-04T18:47:37.272Z,6.52
2018-12-04T18:50:08.490Z,6.79
2018-12-04T18:52:37.348Z,6.73
2018-12-04T18:55:07.743Z,6.46
2018-12-04T18:57:36.789Z,6.09
2018-12-04T19:00:07.252Z,6.31
2018-12-04T19:02:36.160Z,6.74
2018-12-04T19:05:05.402Z,6.53
2018-12-04T19:07:34.361Z,6.59
2018-12-04T19:10:03.450Z,6.79
2018-12-04T19:12:32.612Z,6.69
2018-12-04T19:15:02.390Z,6.55
2018-12-04T19:17:31.248Z,6.78
2018-12-04T19:20:00.268Z,6.70
2018-12-04T19:22:29.139Z,6.79
2018-12-04T19:24:58.150Z,6.39
2018-12-04T19:27:27.072Z,6.22
2018-12-04T19:29:56.000Z,6.24
2018-12-04T19:32:24.984Z,6.43
2018-12-04T19:34:54.055Z,6.59
2018-12-04T19:37:22.958Z,6.50
2018-12-04T19:39:51.892Z,6.60
2018-12-04T19:42:20.957Z,6.84
2018-12-04T19:44:49.893Z,6.42
2018-12-04T19:47:18.779Z,5.94
2018-12-04T19:49:47.727Z,5.70
2018-12-04T19:52:16.617Z,5.61
2018-12-04T19:54:45.599Z,6.14
2018-12-04T19:57:14.494Z,6.23
2018-12-04T19:59:43.386Z,6.05
2018-12-04T20:02:12.284Z,6.07
2018-12-04T20:04:41.337Z,6.25
2018-12-04T20:07:10.460Z,5.94
2018-12-04T20:09:39.354Z,6.06
2018-12-04T20:12:08.652Z,6.09
2018-12-04T20:14:37.556Z,6.18
2018-12-04T20:17:06.281Z,6.23
2018-12-04T20:19:35.209Z,5.79
2018-12-04T20:22:04.171Z,5.20
2018-12-04T20:24:33.094Z,5.66
2018-12-04T20:27:02.071Z,5.73
2018-12-04T20:29:30.964Z,5.65
2018-12-04T20:31:59.881Z,5.33
2018-12-04T20:34:28.772Z,5.51
2018-12-04T20:36:58.511Z,5.34
2018-12-04T20:39:27.439Z,5.66
2018-12-04T20:41:56.377Z,5.64
2018-12-04T20:44:25.731Z,5.69
2018-12-04T20:46:54.705Z,5.79
2018-12-04T20:49:23.570Z,5.88
2018-12-04T20:51:52.613Z,5.82
2018-12-04T20:54:21.509Z,6.01
2018-12-04T20:56:50.617Z,5.28
2018-12-04T20:59:19.485Z,5.53
2018-12-04T21:01:48.544Z,5.68
2018-12-04T21:04:17.823Z,5.76
2018-12-04T21:06:46.891Z,5.74
2018-12-04T21:09:15.812Z,5.76
2018-12-04T21:11:44.852Z,5.63
2018-12-04T21:14:14.782Z,5.87
2018-12-04T21:16:43.817Z,5.85
2018-12-04T21:19:12.729Z,5.56
2018-12-04T21:21:41.628Z,5.70
2018-12-04T21:24:11.297Z,5.88
2018-12-04T21:26:40.319Z,5.82
2018-12-04T21:29:14.377Z,5.63
2018-12-04T21:31:48.478Z,5.38
2018-12-04T21:34:22.752Z,4.94
2018-12-04T21:36:57.972Z,4.80
2018-12-04T21:39:32.053Z,5.13
2018-12-04T21:42:03.975Z,4.82
2018-12-04T21:44:38.079Z,4.93
2018-12-04T21:47:12.416Z,5.25
2018-12-04T21:49:41.336Z,5.15
2018-12-04T21:52:10.224Z,5.55
2018-12-04T21:54:39.508Z,5.58
2018-12-04T21:57:08.423Z,5.75
2018-12-04T21:59:37.324Z,5.58
2018-12-04T22:02:06.713Z,5.73
2018-12-04T22:04:35.684Z,5.90
2018-12-04T22:07:04.565Z,5.63
2018-12-04T22:09:33.870Z,5.17
2018-12-04T22:12:02.752Z,4.91
2018-12-04T22:14:31.688Z,5.35
2018-12-04T22:17:00.746Z,5.60
2018-12-04T22:19:29.654Z,5.42
2018-12-04T22:21:58.520Z,5.45
2018-12-04T22:24:27.633Z,5.70
2018-12-04T22:26:56.486Z,5.44
2018-12-04T22:29:25.548Z,5.49
2018-12-04T22:31:54.589Z,5.14
2018-12-04T22:34:23.513Z,5.25
2018-12-04T22:36:52.547Z,4.81
2018-12-04T22:39:21.495Z,5.22
2018-12-04T22:41:50.906Z,5.25
2018-12-04T22:44:19.855Z,5.36
2018-12-04T22:46:48.747Z,5.27
2018-12-04T22:49:17.846Z,5.42
2018-12-04T22:51:46.709Z,4.93
2018-12-04T22:54:15.724Z,5.11
2018-12-04T22:56:44.608Z,5.21
2018-12-04T22:59:13.545Z,5.18
2018-12-04T23:01:42.805Z,5.14
2018-12-04T23:04:11.860Z,4.96
2018-12-04T23:06:41.317Z,4.44
2018-12-04T23:09:11.180Z,4.88
2018-12-04T23:11:40.074Z,3.66
2018-12-04T23:14:09.000Z,3.89
2018-12-04T23:16:37.930Z,4.46
2018-12-04T23:19:06.869Z,4.75
2018-12-04T23:21:35.949Z,4.90
2018-12-04T23:24:04.813Z,4.69
2018-12-04T23:26:33.787Z,4.41
2018-12-04T23:29:02.651Z,4.52
2018-12-04T23:31:31.560Z,4.25
2018-12-04T23:34:00.484Z,4.22
2018-12-04T23:36:29.403Z,3.98
2018-12-04T23:38:58.278Z,4.27
2018-12-04T23:41:27.233Z,3.99
2018-12-04T23:43:56.121Z,3.95
2018-12-04T23:46:25.055Z,4.11
2018-12-04T23:48:53.896Z,3.92
2018-12-04T23:51:22.864Z,3.73
2018-12-04T23:53:51.956Z,3.31
2018-12-04T23:56:21.068Z,3.56
2018-12-04T23:58:49.932Z,3.65
